Aérodrome :
LOGIN :

S'inscrire | Disclaimer

   EN    FR    IT 

 










Légende :    VFR   VFR Marginal   IFR   IFR Intensif   IFR Très Intensif
Visi : 
Plafond : 
>= 8 km
>= 3000ft
5 à 8 km
1000 à 3000 ft
1500m à 5 km
500 à 1000 ft
800 à 1500m
200 à 500 ft
< 800m
< 200 ft
Symboles :   Orages  Brouillard  Fortes neiges  Fortes précipitations  Vent > 20 kt
SIGMETs :   Divers  Orages  Givrage  Turbulence  Onde Orograph.  Cendres Volcan.







- Altitude de l'aérodrome : 17 ft
- Code IATA : GRQ


EHGG - Groningen Eelde

DERNIER METAR :
  • 171425Z AUTO 29008KT 240V330 9999 FEW048 22/10 Q1018 NOSIG

METARs EXPIRÉS :
  • 171355Z AUTO 30008KT 260V330 9999 NCD 22/10 Q1018 NOSIG
  • 171325Z AUTO 27008KT 230V020 9999 SCT044 SCT049 22/11 Q1018 NOSIG
  • 171255Z AUTO 29007KT 220V020 9999 FEW042 SCT049 22/11 Q1018 NOSIG
  • 171225Z AUTO 28006KT 240V330 9999 NSC 22/12 Q1018 NOSIG
  • 171155Z AUTO 30009KT 280V340 9999 SCT044 BKN048 21/13 Q1018 NOSIG

TAF TAF EHGG
Valide du 17 à 12h jusqu'au 18 à 18h UTC


171120Z 1712/1818 29006KT 9999 SCT040
PROB30 1800/1804 6000 MIFG
BECMG 1807/1810 23014KT
Pas de NOTAMs connus pour ce terrain.



MET'MAP, la Météo Aéronautique d'un coup d'oeil ! - Copyright ORBIFLY Décembre 2007 - Disclaimer

ORBIFLY MET'MAP TEAM :

Programmation & Développement : Alexandra Zaïnal
Conception & Développement : Baudouin d'Aumeries
Co-Programmation & Développement : Marc-Olivier Méhu
Soutien technique & logistique : Manuel Goepfert

Contact : metmap@orbifly.com




SOURCES & CREDITS :

   NOAA